Time;durP1;ratioP1;P1;durP2;ratioP2;P2;SDS_P1;SDS_P2;PMS_P1;PMS_P2;Temp;Humidity;BMP_temperature;BMP_pressure;BME280_temperature;BME280_humidity;BME280_pressure;Samples;Min_cycle;Max_cycle;Signal;HPM_P1;HPM_P2
2022/04/14 00:01:56;;;;;;;9.93;5.80;;;14.10;77.60;;;;;;5032032;28;21099;-76
2022/04/14 00:04:21;;;;;;;8.53;5.30;;;14.10;77.70;;;;;;5032846;28;20204;-75
2022/04/14 00:06:47;;;;;;;7.40;5.10;;;14.10;77.60;;;;;;5034525;28;20531;-74
2022/04/14 00:09:13;;;;;;;7.70;5.53;;;14.00;77.70;;;;;;5049832;28;20177;-75
2022/04/14 00:11:39;;;;;;;8.40;5.00;;;14.00;77.80;;;;;;5037608;28;20229;-74
2022/04/14 00:14:05;;;;;;;11.00;5.30;;;13.90;78.30;;;;;;5035601;28;20247;-74
2022/04/14 00:16:31;;;;;;;8.77;5.20;;;13.90;78.40;;;;;;5039182;28;20315;-73
2022/04/14 00:18:57;;;;;;;13.40;5.80;;;14.00;78.10;;;;;;5033517;28;20552;-73
2022/04/14 00:21:23;;;;;;;13.10;6.20;;;13.90;78.10;;;;;;5034459;28;20177;-73
2022/04/14 00:23:49;;;;;;;14.33;5.93;;;13.90;78.10;;;;;;5033615;28;20427;-74
2022/04/14 00:26:15;;;;;;;10.03;5.90;;;13.80;78.00;;;;;;5034836;28;20448;-73
2022/04/14 00:28:41;;;;;;;10.70;6.10;;;13.70;78.30;;;;;;5035960;28;20184;-74
2022/04/14 00:31:07;;;;;;;8.67;5.47;;;13.60;78.60;;;;;;5036550;28;20416;-73
2022/04/14 00:33:33;;;;;;;8.63;5.70;;;13.50;78.60;;;;;;5039160;28;20496;-72
2022/04/14 00:35:58;;;;;;;13.10;5.67;;;13.60;78.60;;;;;;5038906;28;20189;-73
2022/04/14 00:38:25;;;;;;;9.23;5.20;;;13.50;78.30;;;;;;5039545;28;20208;-74
2022/04/14 00:40:52;;;;;;;10.33;5.10;;;13.50;78.40;;;;;;5036577;28;20455;-73
2022/04/14 00:43:20;;;;;;;15.87;5.60;;;13.50;78.10;;;;;;5036119;28;20431;-74
2022/04/14 00:45:46;;;;;;;7.30;4.73;;;13.50;78.00;;;;;;5036460;28;20448;-74
2022/04/14 00:48:13;;;;;;;8.20;5.57;;;13.50;78.00;;;;;;5036979;28;20431;-73
2022/04/14 00:50:39;;;;;;;11.83;5.47;;;13.50;78.30;;;;;;5036506;28;20431;-74
2022/04/14 00:53:05;;;;;;;7.53;5.30;;;13.50;78.40;;;;;;5033908;28;20481;-73
2022/04/14 00:55:30;;;;;;;8.47;5.07;;;13.50;78.70;;;;;;5036863;28;20929;-76
2022/04/14 00:57:56;;;;;;;8.57;5.33;;;13.50;79.20;;;;;;5034864;28;20820;-73
2022/04/14 01:00:22;;;;;;;10.33;5.47;;;13.50;79.30;;;;;;5047310;28;20239;-73
2022/04/14 01:02:48;;;;;;;8.90;5.60;;;13.50;79.30;;;;;;5031314;28;20180;-74
2022/04/14 01:05:15;;;;;;;10.60;5.90;;;13.40;79.50;;;;;;5035676;28;20569;-74
2022/04/14 01:07:45;;;;;;;12.30;5.33;;;13.50;79.30;;;;;;5032733;28;20412;-73
2022/04/14 01:10:11;;;;;;;13.57;4.97;;;13.50;79.20;;;;;;5045126;28;20432;-72
2022/04/14 01:12:37;;;;;;;11.50;5.53;;;13.50;78.90;;;;;;5049909;28;20412;-72
2022/04/14 01:15:03;;;;;;;11.40;5.67;;;13.40;78.60;;;;;;5049667;28;20459;-72
2022/04/14 01:17:29;;;;;;;11.47;5.07;;;13.30;78.90;;;;;;5045347;28;20416;-74
2022/04/14 01:19:55;;;;;;;23.60;7.17;;;13.20;79.50;;;;;;5042364;28;20458;-73
2022/04/14 01:22:30;;;;;;;12.13;6.00;;;13.10;79.90;;;;;;5043042;28;20185;-74
2022/04/14 01:24:58;;;;;;;10.63;5.30;;;13.10;80.30;;;;;;5054636;28;20256;-74
2022/04/14 01:27:25;;;;;;;10.60;6.90;;;13.10;80.80;;;;;;5048652;28;20444;-75
2022/04/14 01:29:51;;;;;;;11.73;5.47;;;13.00;81.10;;;;;;5042973;28;20499;-73
2022/04/14 01:32:19;;;;;;;13.60;5.70;;;13.00;81.40;;;;;;5043440;28;20458;-74
2022/04/14 01:34:45;;;;;;;11.33;5.03;;;13.00;81.40;;;;;;5044682;28;20424;-73
2022/04/14 01:37:11;;;;;;;9.23;5.53;;;13.00;81.10;;;;;;5040253;28;20511;-74
2022/04/14 01:39:37;;;;;;;9.70;6.23;;;12.90;80.90;;;;;;5039371;28;20490;-73
2022/04/14 01:42:04;;;;;;;8.53;5.40;;;12.90;81.10;;;;;;5033590;28;20420;-73
2022/04/14 01:44:30;;;;;;;15.03;6.33;;;12.90;81.40;;;;;;5033013;28;20686;-73
2022/04/14 01:46:56;;;;;;;8.23;5.87;;;12.90;81.50;;;;;;5032551;28;20427;-73
2022/04/14 01:49:22;;;;;;;12.50;6.20;;;12.90;81.50;;;;;;5045033;28;20870;-72
2022/04/14 01:51:50;;;;;;;9.43;5.93;;;12.90;81.90;;;;;;5058131;28;20531;-72
2022/04/14 01:54:16;;;;;;;9.57;6.07;;;12.80;82.10;;;;;;5061338;28;20207;-73
2022/04/14 01:56:42;;;;;;;8.43;5.00;;;12.80;82.40;;;;;;5053338;28;20447;-74
2022/04/14 01:59:10;;;;;;;10.77;5.27;;;12.90;82.50;;;;;;5039610;28;20455;-73
2022/04/14 02:01:35;;;;;;;10.37;5.47;;;12.90;82.50;;;;;;5037516;28;20502;-74
2022/04/14 02:04:02;;;;;;;8.30;5.70;;;12.90;82.50;;;;;;5032420;28;20432;-73
2022/04/14 02:06:31;;;;;;;13.67;5.23;;;12.90;82.40;;;;;;5032822;28;20200;-75
2022/04/14 02:08:57;;;;;;;10.37;5.53;;;12.90;82.40;;;;;;5032756;28;20486;-74
2022/04/14 02:11:23;;;;;;;10.30;6.10;;;12.90;82.40;;;;;;5033031;28;20871;-72
2022/04/14 02:13:49;;;;;;;12.70;5.70;;;12.90;82.10;;;;;;5032781;28;20789;-73
2022/04/14 02:16:15;;;;;;;11.60;5.40;;;12.80;82.20;;;;;;5032770;28;20523;-72
2022/04/14 02:19:09;;;;;;;12.70;5.13;;;12.80;82.20;;;;;;5025113;28;20196;-73
2022/04/14 02:21:35;;;;;;;9.30;5.10;;;12.80;82.70;;;;;;5032366;28;21070;-73
2022/04/14 02:24:01;;;;;;;9.70;5.60;;;12.80;83.00;;;;;;5034204;28;20500;-73
2022/04/14 02:26:27;;;;;;;8.97;5.40;;;12.80;82.80;;;;;;5039366;28;20193;-74
2022/04/14 02:28:54;;;;;;;13.40;5.10;;;12.70;82.80;;;;;;5038571;28;20181;-72
2022/04/14 02:31:20;;;;;;;8.33;5.57;;;12.70;82.80;;;;;;5038631;28;20419;-73
2022/04/14 02:33:45;;;;;;;10.90;5.50;;;12.70;82.80;;;;;;5039761;28;20403;-73
2022/04/14 02:36:11;;;;;;;11.23;6.10;;;12.70;83.00;;;;;;5039417;28;20185;-73
2022/04/14 02:38:37;;;;;;;10.93;5.80;;;12.70;82.80;;;;;;5039325;28;20245;-73
2022/04/14 02:41:02;;;;;;;10.87;5.80;;;12.70;82.80;;;;;;5034346;28;20184;-73
2022/04/14 02:43:28;;;;;;;12.97;5.67;;;12.70;82.20;;;;;;5034068;28;20185;-73
2022/04/14 02:45:54;;;;;;;9.40;5.80;;;12.70;82.20;;;;;;5035354;28;20197;-73
2022/04/14 02:48:20;;;;;;;12.13;6.00;;;12.70;82.70;;;;;;5035168;28;20181;-74
2022/04/14 02:50:46;;;;;;;14.57;6.07;;;12.70;82.80;;;;;;5041136;28;20201;-73
2022/04/14 02:53:12;;;;;;;9.13;5.07;;;12.60;83.00;;;;;;5041074;28;20185;-73
2022/04/14 02:55:37;;;;;;;7.83;5.30;;;12.60;83.10;;;;;;5036801;28;20866;-73
2022/04/14 02:58:03;;;;;;;10.13;5.13;;;12.60;83.30;;;;;;5038249;28;20709;-74
2022/04/14 03:00:29;;;;;;;9.40;5.30;;;12.60;82.80;;;;;;5035724;28;20246;-75
2022/04/14 03:02:54;;;;;;;10.07;5.20;;;12.50;82.10;;;;;;5040511;28;20673;-74
2022/04/14 03:05:20;;;;;;;11.00;4.83;;;12.60;83.00;;;;;;5037096;28;20185;-75
2022/04/14 03:07:46;;;;;;;9.63;5.10;;;12.60;83.10;;;;;;5036210;28;20177;-74
2022/04/14 03:10:11;;;;;;;11.17;5.47;;;12.60;83.10;;;;;;5032893;28;20200;-74
2022/04/14 03:12:46;;;;;;;7.97;5.03;;;12.60;83.00;;;;;;5040382;28;20227;-74
2022/04/14 03:15:12;;;;;;;12.17;5.60;;;12.60;83.30;;;;;;5036547;28;20950;-75
2022/04/14 03:17:38;;;;;;;11.00;5.70;;;12.60;83.30;;;;;;5042549;28;20431;-75
2022/04/14 03:20:04;;;;;;;9.10;5.00;;;12.60;83.10;;;;;;5036357;28;20455;-73
2022/04/14 03:22:34;;;;;;;7.97;5.00;;;12.50;82.80;;;;;;5035700;28;20181;-75
2022/04/14 03:25:05;;;;;;;8.87;5.37;;;12.40;83.30;;;;;;5039570;28;20942;-76
2022/04/14 03:27:30;;;;;;;10.90;5.50;;;12.40;83.40;;;;;;5031317;28;20431;-75
2022/04/14 03:29:56;;;;;;;12.07;5.87;;;12.40;83.60;;;;;;5031326;28;20420;-74
2022/04/14 03:32:24;;;;;;;17.53;6.10;;;12.40;84.00;;;;;;5037337;28;20188;-75
2022/04/14 03:34:50;;;;;;;17.70;6.33;;;12.40;84.40;;;;;;5039361;28;20212;-76
2022/04/14 03:37:16;;;;;;;13.53;6.37;;;12.40;84.60;;;;;;5031814;28;20880;-73
2022/04/14 03:39:42;;;;;;;10.70;6.00;;;12.40;84.90;;;;;;5031463;28;20566;-75
2022/04/14 03:42:08;;;;;;;18.93;6.90;;;12.30;85.20;;;;;;5037694;28;20249;-76
2022/04/14 03:44:33;;;;;;;15.80;6.50;;;12.40;85.30;;;;;;5034052;28;20205;-77
2022/04/14 03:46:59;;;;;;;15.43;5.33;;;12.40;85.50;;;;;;5036511;28;20431;-77
2022/04/14 03:49:25;;;;;;;14.13;6.83;;;12.40;85.50;;;;;;5033293;28;20263;-75
2022/04/14 03:51:54;;;;;;;12.50;7.00;;;12.40;85.20;;;;;;5031865;28;20264;-73
2022/04/14 03:54:20;;;;;;;19.40;7.13;;;12.40;85.50;;;;;;5032187;28;20622;-73
2022/04/14 03:56:47;;;;;;;12.13;6.80;;;12.40;85.30;;;;;;5026976;28;20450;-75
2022/04/14 03:59:13;;;;;;;12.33;6.83;;;12.50;85.00;;;;;;5037046;28;20513;-73
2022/04/14 04:01:39;;;;;;;13.40;6.70;;;12.50;85.20;;;;;;5035410;28;21092;-74
2022/04/14 04:04:05;;;;;;;14.80;7.30;;;12.50;85.20;;;;;;5037965;28;20443;-75
2022/04/14 04:06:31;;;;;;;14.87;7.30;;;12.40;85.20;;;;;;5031080;28;20474;-74
2022/04/14 04:08:57;;;;;;;16.23;7.70;;;12.50;85.30;;;;;;5031491;28;20551;-74
2022/04/14 04:11:22;;;;;;;11.67;7.30;;;12.40;85.50;;;;;;5032498;28;20189;-74
2022/04/14 04:13:48;;;;;;;14.27;7.67;;;12.40;85.60;;;;;;5053126;28;20192;-74
2022/04/14 04:16:14;;;;;;;14.47;7.50;;;12.40;85.50;;;;;;5057260;28;20442;-75
2022/04/14 04:18:40;;;;;;;12.73;7.27;;;12.40;85.50;;;;;;5050801;28;20781;-74
2022/04/14 04:21:06;;;;;;;13.60;7.20;;;12.30;85.60;;;;;;5039314;28;21141;-74
2022/04/14 04:23:31;;;;;;;21.90;9.43;;;12.40;86.00;;;;;;5032152;28;20211;-75
2022/04/14 04:25:57;;;;;;;20.60;9.00;;;12.40;86.20;;;;;;5036250;28;20316;-75
2022/04/14 04:28:30;;;;;;;16.73;8.50;;;12.40;86.30;;;;;;5032493;28;20185;-76
2022/04/14 04:30:56;;;;;;;20.40;8.60;;;12.40;86.50;;;;;;5028893;28;20181;-76
2022/04/14 04:33:22;;;;;;;19.77;9.50;;;12.30;86.80;;;;;;5032656;28;20428;-75
2022/04/14 04:35:50;;;;;;;19.10;10.57;;;12.30;87.00;;;;;;5037063;28;20454;-74
2022/04/14 04:38:15;;;;;;;15.40;9.73;;;12.30;87.40;;;;;;5031706;28;20189;-74
2022/04/14 04:40:41;;;;;;;22.33;10.60;;;12.30;87.60;;;;;;5036936;28;20478;-75
2022/04/14 04:43:08;;;;;;;17.00;10.00;;;12.30;87.70;;;;;;5039742;28;20196;-76
2022/04/14 04:45:37;;;;;;;18.90;10.70;;;12.40;87.80;;;;;;5034844;28;20208;-75
2022/04/14 04:48:04;;;;;;;16.77;10.83;;;12.30;88.00;;;;;;5039282;28;20420;-74
2022/04/14 04:50:30;;;;;;;21.80;12.50;;;12.30;88.10;;;;;;5038061;28;20534;-75
2022/04/14 04:52:56;;;;;;;18.53;10.20;;;12.30;88.10;;;;;;5032492;28;20523;-76
2022/04/14 04:55:22;;;;;;;19.47;10.80;;;12.30;88.10;;;;;;5030463;28;20428;-76
2022/04/14 04:57:47;;;;;;;26.43;10.10;;;12.40;87.60;;;;;;5031105;28;20185;-77
2022/04/14 05:00:13;;;;;;;14.40;8.83;;;12.40;87.10;;;;;;5034463;28;20263;-77
2022/04/14 05:02:39;;;;;;;17.40;8.30;;;12.40;86.90;;;;;;5038601;28;20229;-76
2022/04/14 05:05:05;;;;;;;20.83;9.90;;;12.40;86.60;;;;;;5039713;28;20469;-76
2022/04/14 05:07:31;;;;;;;21.57;10.00;;;12.40;86.50;;;;;;5036516;28;20416;-77
2022/04/14 05:09:57;;;;;;;19.40;9.80;;;12.40;86.20;;;;;;5036987;28;20416;-77
2022/04/14 05:12:23;;;;;;;15.03;9.00;;;12.30;86.30;;;;;;5038461;28;20187;-77
2022/04/14 05:14:49;;;;;;;19.20;8.80;;;12.40;86.30;;;;;;5037340;28;20208;-76
2022/04/14 05:17:15;;;;;;;27.70;10.30;;;12.40;86.20;;;;;;5044127;28;20208;-75
2022/04/14 05:19:41;;;;;;;22.40;9.70;;;12.50;85.90;;;;;;5032973;28;20475;-78
2022/04/14 05:22:06;;;;;;;19.10;11.00;;;12.50;85.70;;;;;;5035316;28;20264;-76
2022/04/14 05:24:33;;;;;;;19.80;9.50;;;12.50;85.70;;;;;;5039538;28;20310;-76
2022/04/14 05:26:59;;;;;;;18.87;10.13;;;12.50;86.00;;;;;;5033477;28;20204;-76
2022/04/14 05:29:25;;;;;;;22.33;11.67;;;12.50;86.00;;;;;;5034241;28;20443;-75
2022/04/14 05:31:50;;;;;;;16.63;10.33;;;12.60;86.20;;;;;;5039554;28;20458;-77
2022/04/14 05:34:16;;;;;;;25.67;11.60;;;12.70;86.20;;;;;;5047982;28;20184;-77
2022/04/14 05:36:42;;;;;;;19.73;11.27;;;12.70;85.90;;;;;;5034767;28;20216;-75
2022/04/14 05:39:08;;;;;;;26.20;11.57;;;12.70;86.00;;;;;;5041520;28;20208;-77
2022/04/14 05:41:34;;;;;;;18.10;11.77;;;12.80;85.90;;;;;;5042610;28;20181;-77
2022/04/14 05:44:00;;;;;;;21.27;12.00;;;12.90;85.60;;;;;;5038032;28;20653;-76
2022/04/14 05:46:26;;;;;;;23.50;12.17;;;12.90;85.50;;;;;;5034714;28;20490;-74
2022/04/14 05:48:51;;;;;;;22.40;12.07;;;13.00;85.00;;;;;;5030383;28;20186;-75
2022/04/14 05:51:20;;;;;;;25.67;13.10;;;13.00;85.00;;;;;;5036617;28;20219;-75
2022/04/14 05:53:50;;;;;;;21.67;12.93;;;13.00;85.20;;;;;;5030460;28;20188;-75
2022/04/14 05:56:17;;;;;;;25.70;13.67;;;13.10;85.50;;;;;;5030484;28;20443;-74
2022/04/14 05:58:43;;;;;;;32.73;14.10;;;13.20;85.50;;;;;;5033628;28;20420;-74
2022/04/14 06:01:09;;;;;;;29.37;15.73;;;13.20;85.30;;;;;;5043996;28;20440;-75
2022/04/14 06:03:35;;;;;;;33.80;16.40;;;13.30;85.70;;;;;;5041869;28;20440;-75
2022/04/14 06:06:00;;;;;;;42.80;21.30;;;13.30;85.90;;;;;;5039075;28;20203;-75
2022/04/14 06:08:27;;;;;;;29.60;15.87;;;13.40;86.50;;;;;;5044699;28;20306;-75
2022/04/14 06:10:52;;;;;;;36.07;18.10;;;13.30;87.10;;;;;;5034508;28;20181;-74
2022/04/14 06:13:18;;;;;;;45.90;23.83;;;13.50;87.10;;;;;;5035618;28;20439;-73
2022/04/14 06:15:44;;;;;;;46.00;22.93;;;13.60;87.30;;;;;;5037656;28;20269;-75
2022/04/14 06:18:09;;;;;;;45.17;23.70;;;13.60;88.00;;;;;;5038480;28;20182;-75
2022/04/14 06:20:35;;;;;;;49.10;24.40;;;13.70;88.00;;;;;;5035180;28;20588;-76
2022/04/14 06:23:01;;;;;;;48.67;24.17;;;13.70;88.00;;;;;;5035677;28;20189;-74
2022/04/14 06:25:27;;;;;;;43.40;23.90;;;13.70;88.00;;;;;;5036725;28;20250;-74
2022/04/14 06:27:55;;;;;;;52.47;26.83;;;13.80;87.80;;;;;;5035523;28;20177;-76
2022/04/14 06:30:21;;;;;;;46.23;23.40;;;13.90;87.70;;;;;;5032020;28;20189;-75
2022/04/14 06:32:56;;;;;;;50.13;26.53;;;14.00;87.30;;;;;;5038756;28;20438;-76
2022/04/14 06:35:22;;;;;;;52.10;25.07;;;14.10;87.60;;;;;;5042369;28;20430;-75
2022/04/14 06:37:47;;;;;;;46.90;24.60;;;14.20;87.60;;;;;;5037882;28;20423;-74
2022/04/14 06:40:13;;;;;;;46.60;24.63;;;14.30;87.10;;;;;;5034635;28;20203;-74
2022/04/14 06:42:39;;;;;;;51.00;26.00;;;14.30;87.30;;;;;;5033080;28;20207;-74
2022/04/14 06:45:05;;;;;;;48.13;23.90;;;14.40;87.00;;;;;;5038542;28;20666;-75
2022/04/14 06:47:32;;;;;;;50.50;26.20;;;14.50;86.80;;;;;;5035076;28;20190;-74
2022/04/14 06:49:58;;;;;;;44.50;25.10;;;14.50;86.50;;;;;;5040532;28;20917;-76
2022/04/14 06:52:23;;;;;;;42.50;23.30;;;14.60;86.20;;;;;;5036149;28;20444;-74
2022/04/14 06:54:50;;;;;;;42.50;22.40;;;14.70;85.90;;;;;;5042138;28;20189;-73
2022/04/14 06:57:16;;;;;;;50.60;24.80;;;14.80;85.70;;;;;;5038193;28;20214;-76
2022/04/14 06:59:42;;;;;;;49.80;23.10;;;14.80;85.30;;;;;;5033277;28;20543;-75
2022/04/14 07:02:07;;;;;;;43.43;22.20;;;14.80;85.50;;;;;;5032909;28;20645;-76
2022/04/14 07:04:34;;;;;;;43.70;22.70;;;14.90;85.30;;;;;;5040371;28;20293;-75
2022/04/14 07:07:00;;;;;;;53.03;24.07;;;15.00;85.20;;;;;;5039520;28;20564;-75
2022/04/14 07:09:28;;;;;;;47.97;24.83;;;15.00;85.00;;;;;;5034775;28;20570;-77
2022/04/14 07:11:54;;;;;;;42.43;22.43;;;15.20;84.30;;;;;;5043188;28;20846;-74
2022/04/14 07:14:20;;;;;;;47.60;22.93;;;15.20;84.00;;;;;;5038264;28;20428;-75
2022/04/14 07:16:45;;;;;;;37.33;21.00;;;15.20;83.80;;;;;;5039597;28;20203;-73
2022/04/14 07:19:11;;;;;;;41.97;22.80;;;15.30;83.70;;;;;;5043898;28;20212;-74
2022/04/14 07:21:37;;;;;;;38.53;21.17;;;15.40;83.60;;;;;;5042067;28;20658;-76
2022/04/14 07:24:02;;;;;;;41.23;22.80;;;15.50;83.10;;;;;;5047740;28;20192;-73
2022/04/14 07:26:28;;;;;;;40.10;22.17;;;15.60;82.50;;;;;;5041974;28;20220;-75
2022/04/14 07:28:54;;;;;;;44.17;21.73;;;15.60;82.40;;;;;;5039968;28;20281;-74
2022/04/14 07:31:19;;;;;;;37.30;21.60;;;15.70;82.20;;;;;;5034916;28;20559;-74
2022/04/14 07:33:45;;;;;;;43.30;20.97;;;15.70;81.90;;;;;;5035928;28;20637;-75
2022/04/14 07:36:14;;;;;;;40.90;22.23;;;15.60;82.20;;;;;;5035824;28;20249;-74
2022/04/14 07:38:40;;;;;;;39.70;21.57;;;15.60;82.40;;;;;;5032298;28;20196;-73
2022/04/14 07:41:05;;;;;;;37.10;20.57;;;15.60;83.00;;;;;;5034422;28;20474;-75
2022/04/14 07:43:32;;;;;;;45.33;21.93;;;15.80;82.20;;;;;;5032530;28;20192;-77
2022/04/14 07:45:58;;;;;;;40.77;21.17;;;15.90;81.90;;;;;;5037801;28;20288;-75
2022/04/14 07:48:24;;;;;;;37.30;20.90;;;16.00;81.50;;;;;;5035182;28;20835;-74
2022/04/14 07:50:50;;;;;;;43.43;21.50;;;16.10;80.80;;;;;;4988802;28;1463595;-75
2022/04/14 07:53:17;;;;;;;38.37;20.60;;;16.10;80.90;;;;;;5032820;28;20446;-75
2022/04/14 07:55:43;;;;;;;41.83;20.87;;;16.10;80.80;;;;;;5033177;28;20457;-74
2022/04/14 07:58:09;;;;;;;38.93;21.83;;;15.90;81.10;;;;;;5032558;28;20435;-75
2022/04/14 08:00:36;;;;;;;39.80;21.30;;;15.80;81.50;;;;;;5032432;28;20222;-75
2022/04/14 08:03:04;;;;;;;33.53;19.23;;;15.90;81.80;;;;;;5037492;28;20432;-75
2022/04/14 08:05:36;;;;;;;44.87;20.90;;;16.10;81.40;;;;;;5035463;28;20444;-77
2022/04/14 08:08:08;;;;;;;35.20;18.97;;;16.20;80.50;;;;;;5036993;28;20461;-76
2022/04/14 08:10:35;;;;;;;39.50;21.80;;;16.40;80.50;;;;;;5036681;28;20786;-78
2022/04/14 08:13:00;;;;;;;35.63;19.97;;;16.50;79.20;;;;;;5037937;28;20899;-76
2022/04/14 08:15:28;;;;;;;34.10;19.80;;;16.50;79.30;;;;;;5035922;28;20458;-75
2022/04/14 08:17:53;;;;;;;35.10;20.07;;;16.60;78.90;;;;;;5040203;28;20185;-77
2022/04/14 08:20:19;;;;;;;37.23;20.40;;;16.70;78.90;;;;;;5034973;28;20571;-77
2022/04/14 08:22:56;;;;;;;36.60;19.80;;;16.60;78.40;;;;;;5034414;28;20184;-76
2022/04/14 08:25:28;;;;;;;36.47;20.60;;;16.50;78.70;;;;;;5033125;28;20311;-76
2022/04/14 08:27:55;;;;;;;39.93;20.40;;;16.40;79.60;;;;;;5031562;28;20416;-77
2022/04/14 08:30:24;;;;;;;38.00;20.13;;;16.50;79.70;;;;;;5028580;28;20454;-76
2022/04/14 08:32:51;;;;;;;42.13;21.13;;;16.70;79.60;;;;;;5034499;28;20430;-76
2022/04/14 08:35:19;;;;;;;44.83;20.57;;;16.80;78.60;;;;;;5033558;28;20427;-78
2022/04/14 08:37:45;;;;;;;32.20;19.23;;;16.70;78.70;;;;;;5036826;28;20469;-76
2022/04/14 08:40:14;;;;;;;36.57;20.47;;;16.90;78.30;;;;;;5033275;28;20528;-76
2022/04/14 08:42:41;;;;;;;39.93;19.50;;;17.00;77.80;;;;;;5038288;28;20507;-75
2022/04/14 08:45:13;;;;;;;39.57;21.20;;;17.00;77.80;;;;;;5035328;28;20430;-76
2022/04/14 08:47:40;;;;;;;38.23;19.80;;;17.00;77.70;;;;;;5031395;28;20507;-76
2022/04/14 08:50:08;;;;;;;32.63;18.73;;;17.00;78.00;;;;;;5030867;28;20456;-77
2022/04/14 08:52:35;;;;;;;35.17;19.10;;;17.10;78.00;;;;;;5029853;28;20434;-77
2022/04/14 08:55:06;;;;;;;33.70;17.77;;;17.30;76.40;;;;;;5035473;28;20432;-76
2022/04/14 08:57:33;;;;;;;33.17;19.67;;;17.40;76.10;;;;;;5033505;28;20442;-76
2022/04/14 09:00:00;;;;;;;35.27;20.27;;;17.40;75.50;;;;;;5032697;28;20467;-77
2022/04/14 09:02:27;;;;;;;40.03;18.77;;;17.30;75.80;;;;;;5034681;28;20792;-75
2022/04/14 09:04:56;;;;;;;33.60;18.93;;;17.30;75.80;;;;;;5039693;28;20511;-76
2022/04/14 09:07:22;;;;;;;39.13;20.20;;;17.40;75.80;;;;;;5036344;28;20447;-76
2022/04/14 09:09:47;;;;;;;41.23;20.17;;;17.40;75.20;;;;;;5034592;28;20887;-76
2022/04/14 09:12:13;;;;;;;37.67;19.30;;;17.20;75.90;;;;;;5032333;28;20515;-76
2022/04/14 09:14:40;;;;;;;37.27;18.37;;;17.10;76.40;;;;;;5031553;28;20190;-75
2022/04/14 09:17:06;;;;;;;35.53;19.07;;;17.30;76.10;;;;;;5033944;28;20443;-76
2022/04/14 09:19:34;;;;;;;38.60;19.73;;;17.30;75.50;;;;;;5032908;28;20471;-76
2022/04/14 09:22:01;;;;;;;35.40;19.80;;;17.40;75.50;;;;;;5034575;28;20431;-76
2022/04/14 09:24:47;;;;;;;28.10;17.23;;;17.40;75.70;;;;;;5039151;28;20447;-77
2022/04/14 09:27:37;;;;;;;34.10;17.83;;;17.50;74.50;;;;;;5034766;28;20445;-75
2022/04/14 09:30:06;;;;;;;36.23;18.17;;;17.50;74.20;;;;;;5027984;28;20432;-77
2022/04/14 09:32:33;;;;;;;35.20;17.50;;;17.50;74.20;;;;;;5029464;28;20426;-76
2022/04/14 09:35:02;;;;;;;37.83;21.00;;;17.70;73.70;;;;;;5037332;28;20522;-77
2022/04/14 09:37:28;;;;;;;46.73;20.00;;;17.70;73.60;;;;;;5030456;28;20458;-76
2022/04/14 09:39:55;;;;;;;34.10;19.20;;;17.70;73.90;;;;;;5030350;28;20492;-76
2022/04/14 09:42:22;;;;;;;30.00;18.07;;;17.70;72.90;;;;;;5031646;28;20434;-75
2022/04/14 09:44:49;;;;;;;36.70;17.83;;;17.60;72.90;;;;;;5033140;28;20432;-76
2022/04/14 09:47:25;;;;;;;36.83;18.70;;;17.70;71.70;;;;;;5030931;28;20452;-75
2022/04/14 09:49:51;;;;;;;34.27;18.47;;;17.80;72.60;;;;;;5028882;28;20950;-76
2022/04/14 09:52:17;;;;;;;32.50;18.10;;;17.90;72.30;;;;;;5030792;28;20414;-75
2022/04/14 09:54:44;;;;;;;29.50;17.47;;;18.00;71.00;;;;;;5036623;28;20552;-76
2022/04/14 09:57:11;;;;;;;31.13;17.83;;;18.10;70.50;;;;;;5034102;28;20214;-77
2022/04/14 09:59:38;;;;;;;35.13;18.47;;;18.20;70.20;;;;;;5030304;28;20864;-75
2022/04/14 10:02:12;;;;;;;35.93;19.43;;;18.30;70.80;;;;;;5030404;28;20503;-75
2022/04/14 10:04:46;;;;;;;36.07;19.40;;;18.30;71.70;;;;;;5039081;28;20428;-77
2022/04/14 10:07:16;;;;;;;33.97;19.33;;;18.30;72.00;;;;;;5029466;28;20555;-76
2022/04/14 10:09:43;;;;;;;36.23;20.13;;;18.50;71.60;;;;;;5039865;28;20436;-77
2022/04/14 10:12:18;;;;;;;29.33;18.47;;;18.50;71.40;;;;;;5037037;28;20800;-75
2022/04/14 10:15:01;;;;;;;35.73;21.77;;;18.70;70.80;;;;;;5030980;28;20434;-76
2022/04/14 10:17:28;;;;;;;30.80;19.30;;;18.50;71.60;;;;;;5033602;28;20557;-77
2022/04/14 10:19:54;;;;;;;36.70;18.50;;;18.60;71.40;;;;;;5029016;28;20466;-77
2022/04/14 10:22:20;;;;;;;33.47;20.83;;;18.80;70.40;;;;;;5030596;28;20439;-77
2022/04/14 10:24:47;;;;;;;37.50;20.10;;;18.80;69.90;;;;;;5029207;28;20508;-76
2022/04/14 10:27:16;;;;;;;37.30;20.40;;;18.80;70.50;;;;;;5039208;28;20214;-77
2022/04/14 10:29:43;;;;;;;40.00;20.10;;;18.90;70.40;;;;;;5031340;28;20501;-75
2022/04/14 10:32:11;;;;;;;35.40;20.60;;;19.00;69.70;;;;;;5037066;28;20458;-77
2022/04/14 10:34:38;;;;;;;38.30;19.10;;;18.80;69.50;;;;;;5034469;28;20424;-75
2022/04/14 10:37:08;;;;;;;32.00;19.50;;;18.90;69.90;;;;;;5039265;28;20450;-77
2022/04/14 10:39:41;;;;;;;31.30;19.00;;;19.10;69.20;;;;;;5038054;28;20511;-76
2022/04/14 10:42:09;;;;;;;32.33;18.70;;;19.20;69.20;;;;;;5042745;28;20450;-76
2022/04/14 10:44:49;;;;;;;40.20;19.30;;;19.30;68.80;;;;;;5045267;28;20739;-76
2022/04/14 10:47:42;;;;;;;35.90;18.27;;;19.40;68.00;;;;;;5045721;28;20467;-77
2022/04/14 10:50:18;;;;;;;31.07;18.07;;;19.90;67.20;;;;;;5051464;28;20435;-76
2022/04/14 10:52:59;;;;;;;34.50;18.60;;;20.20;65.40;;;;;;5031412;28;20429;-78
2022/04/14 10:55:45;;;;;;;30.50;17.83;;;20.30;64.80;;;;;;5041298;28;20488;-76
2022/04/14 10:58:26;;;;;;;39.20;20.20;;;20.20;64.10;;;;;;5039840;28;20417;-74
2022/04/14 11:00:54;;;;;;;35.07;17.47;;;20.50;64.10;;;;;;5042952;28;20537;-76
2022/04/14 11:03:20;;;;;;;37.60;17.60;;;20.60;63.50;;;;;;5050049;28;20420;-78
2022/04/14 11:05:50;;;;;;;38.40;18.63;;;20.70;62.50;;;;;;5036293;28;20450;-74
2022/04/14 11:08:24;;;;;;;28.17;17.00;;;20.80;62.30;;;;;;5035443;28;20571;-76
2022/04/14 11:11:14;;;;;;;27.23;17.10;;;20.70;62.50;;;;;;5027740;28;20413;-77
2022/04/14 11:13:52;;;;;;;28.67;17.53;;;20.70;62.00;;;;;;5029977;28;21168;-78
2022/04/14 11:16:40;;;;;;;23.10;15.40;;;20.80;61.30;;;;;;5035023;28;20858;-76
2022/04/14 11:19:26;;;;;;;30.70;16.70;;;20.80;60.70;;;;;;5040979;28;20422;-74
2022/04/14 11:21:58;;;;;;;29.70;16.30;;;20.90;61.30;;;;;;5031679;28;20426;-80
2022/04/14 11:24:53;;;;;;;31.00;16.00;;;21.20;60.40;;;;;;5037574;28;20433;-75
2022/04/14 11:27:25;;;;;;;27.67;16.30;;;21.20;58.50;;;;;;5010110;28;20469;-76
2022/04/14 11:29:57;;;;;;;29.90;17.37;;;21.00;60.30;;;;;;5027382;28;20461;-75
2022/04/14 11:32:40;;;;;;;25.77;15.83;;;20.70;61.30;;;;;;5034061;28;20414;-75
2022/04/14 11:35:16;;;;;;;21.37;14.33;;;20.60;62.00;;;;;;5033775;28;20453;-76
2022/04/14 11:37:49;;;;;;;39.60;16.70;;;20.90;61.00;;;;;;5033623;28;20404;-75
2022/04/14 11:40:18;;;;;;;28.83;17.00;;;21.30;60.00;;;;;;5033491;28;20553;-76
2022/04/14 11:42:49;;;;;;;27.90;17.53;;;21.50;59.70;;;;;;5026013;28;20453;-75
2022/04/14 11:45:24;;;;;;;31.50;19.60;;;21.60;59.90;;;;;;5033909;28;20421;-75
2022/04/14 11:47:52;;;;;;;33.83;19.60;;;21.60;59.90;;;;;;5030869;28;20423;-75
2022/04/14 11:50:28;;;;;;;30.20;19.70;;;21.60;60.70;;;;;;5033844;28;21019;-74
2022/04/14 11:52:58;;;;;;;32.57;18.90;;;21.30;61.60;;;;;;5033835;28;20488;-73
2022/04/14 11:55:41;;;;;;;31.17;17.73;;;21.50;61.70;;;;;;5032820;28;20419;-75
2022/04/14 11:58:09;;;;;;;30.73;18.57;;;21.90;60.70;;;;;;5033568;28;20419;-75
2022/04/14 12:01:05;;;;;;;35.77;17.23;;;22.20;59.60;;;;;;5033477;28;21012;-75
2022/04/14 12:03:33;;;;;;;31.00;17.37;;;22.40;59.50;;;;;;5032403;28;20582;-77
2022/04/14 12:06:08;;;;;;;34.87;17.17;;;22.30;58.90;;;;;;5037398;28;20489;-74
2022/04/14 12:08:34;;;;;;;27.27;18.37;;;22.40;58.80;;;;;;5036699;28;20508;-74
2022/04/14 12:11:20;;;;;;;29.90;17.33;;;22.10;59.10;;;;;;5034820;28;20430;-73
2022/04/14 12:13:46;;;;;;;31.07;18.57;;;22.10;59.90;;;;;;5043817;28;20456;-75
2022/04/14 12:16:12;;;;;;;31.30;19.60;;;22.20;58.90;;;;;;5046410;28;20446;-73
2022/04/14 12:18:40;;;;;;;26.47;16.90;;;22.20;58.50;;;;;;5038225;28;20423;-75
2022/04/14 12:21:06;;;;;;;29.57;18.30;;;22.30;58.70;;;;;;5034794;28;20486;-75
2022/04/14 12:23:33;;;;;;;34.97;19.53;;;22.50;58.70;;;;;;5031541;28;20961;-75
2022/04/14 12:26:02;;;;;;;32.53;20.13;;;22.50;59.10;;;;;;5031521;28;20444;-74
2022/04/14 12:28:28;;;;;;;29.10;19.00;;;22.20;59.70;;;;;;5031620;28;20454;-77
2022/04/14 12:30:54;;;;;;;24.57;17.40;;;22.00;60.90;;;;;;5035136;28;20533;-76
2022/04/14 12:33:27;;;;;;;32.70;18.13;;;22.30;59.60;;;;;;5032604;28;20568;-78
2022/04/14 12:36:06;;;;;;;32.47;18.10;;;22.60;58.90;;;;;;5031494;28;20216;-76